Terminal Aerodrome Forecast
Issued by NWS Wakefield, VA

Home | Current Version | Previous Version | Text Only | Print | Product List | Glossary On
Versions: 1 2 3 4 5 6 7 8 9 10 11 12 13 14 15 16 17 18 19 20 21
005
FTUS41 KAKQ 201908 AAA
TAFRIC
TAF AMD
KRIC 201908Z 2019/2118 14005KT 3SM BR BKN005 OVC035
      TEMPO 2019/2022 1 1/2SM -RA BR OVC008
     FM202200 17003KT P6SM OVC012
     FM210200 00000KT 5SM BR OVC010
     FM210500 00000KT 4SM -DZ BR OVC007
     FM210800 00000KT 1 1/2SM -DZ BR OVC004
     FM211500 VRB03KT P6SM BKN005 OVC025=

USA.gov is the U.S. government's official web portal to all federal, state and local government web resources and services.